Saratoga, Indiana
Current Conditions -  °F | °C
As of 12:35 AM on Sunday 26 Oct 2014 (Local Time) from KVES Reporting Station
Clear Clear  
Wind Chill: 50°   Ceiling: Unl
Heat Index: 50°   Visibility: 10mi
Dew Point: 43°   Wind: 6mph
Humidity: 76%   Direction: 290°WNW
Pressure: 29.92"   Gusts: NA
Location:  40.24°N, 84.92°W
Report Text: KVES 260435Z AUTO 29005KT 10SM CLR 10/06 A2992 RMK AO2
Loading
Personal Weather Stations






























Interactive Weather Map
Tropical Storm Tracking
New forecast layout! Learn more

10-Day Weather Forecast

Advertisements
Track Severe Weather on mobile